createdAt,value
2018-12-19T00:01:17.063Z,97706.81
2018-12-19T00:03:44.570Z,97711.08
2018-12-19T00:06:12.074Z,97702.77
2018-12-19T00:08:39.549Z,97690.91
2018-12-19T00:11:07.042Z,97674.89
2018-12-19T00:13:34.568Z,97673.91
2018-12-19T00:16:02.055Z,97674.06
2018-12-19T00:18:29.566Z,97505.42
2018-12-19T00:20:57.045Z,97671.21
2018-12-19T00:23:24.535Z,97671.38
2018-12-19T00:25:52.060Z,97669.97
2018-12-19T00:28:19.588Z,97672.57
2018-12-19T00:30:47.111Z,97678.80
2018-12-19T00:33:14.619Z,97674.34
2018-12-19T00:35:42.114Z,97672.34
2018-12-19T00:38:09.597Z,97673.91
2018-12-19T00:40:37.098Z,97669.05
2018-12-19T00:43:04.592Z,97671.87
2018-12-19T00:45:32.070Z,97675.08
2018-12-19T00:47:59.585Z,97657.00
2018-12-19T00:50:27.061Z,97659.86
2018-12-19T00:52:54.541Z,97660.17
2018-12-19T00:55:22.063Z,97666.47
2018-12-19T00:57:49.566Z,97666.73
2018-12-19T01:00:17.066Z,97664.22
2018-12-19T01:05:18.330Z,97651.50
2018-12-19T01:07:45.829Z,97652.16
2018-12-19T01:10:13.306Z,97655.50
2018-12-19T01:12:41.572Z,97639.67
2018-12-19T01:15:09.049Z,97636.58
2018-12-19T01:17:36.539Z,97642.97
2018-12-19T01:20:04.611Z,97641.18
2018-12-19T01:22:32.101Z,97648.94
2018-12-19T01:24:59.585Z,97663.53
2018-12-19T01:27:27.081Z,97660.11
2018-12-19T01:29:54.572Z,97656.21
2018-12-19T01:32:22.070Z,97657.77
2018-12-19T01:34:49.556Z,97658.63
2018-12-19T01:37:17.604Z,97656.39
2018-12-19T01:39:45.118Z,97652.33
2018-12-19T01:42:12.597Z,97641.94
2018-12-19T01:44:40.066Z,97634.02
2018-12-19T01:47:07.533Z,97629.69
2018-12-19T01:49:35.025Z,97628.70
2018-12-19T01:52:02.509Z,97633.27
2018-12-19T01:54:29.989Z,97639.76
2018-12-19T01:56:57.461Z,97635.86
2018-12-19T01:59:24.953Z,97629.53
2018-12-19T02:01:52.463Z,97630.93
2018-12-19T02:04:19.947Z,97635.58
2018-12-19T02:06:47.488Z,97631.84
2018-12-19T02:09:14.981Z,97631.55
2018-12-19T02:11:42.484Z,97629.36
2018-12-19T02:14:09.964Z,97626.48
2018-12-19T02:16:37.465Z,97628.45
2018-12-19T02:19:05.082Z,97624.66
2018-12-19T02:21:32.563Z,97624.12
2018-12-19T02:24:00.061Z,97626.78
2018-12-19T02:26:27.570Z,97631.88
2018-12-19T02:28:55.254Z,97630.58
2018-12-19T02:31:22.790Z,97631.97
2018-12-19T02:33:50.263Z,97631.30
2018-12-19T02:36:17.759Z,97628.09
2018-12-19T02:38:45.279Z,97634.27
2018-12-19T02:41:12.794Z,97638.59
2018-12-19T02:43:40.271Z,97638.59
2018-12-19T02:46:07.781Z,97644.09
2018-12-19T02:48:35.279Z,97644.44
2018-12-19T02:51:02.781Z,97647.05
2018-12-19T02:53:30.300Z,97641.78
2018-12-19T02:55:57.823Z,97639.65
2018-12-19T02:58:25.314Z,97647.22
2018-12-19T03:00:52.827Z,97656.21
2018-12-19T03:03:20.365Z,97655.13
2018-12-19T03:05:47.849Z,97659.92
2018-12-19T03:08:15.369Z,97655.13
2018-12-19T03:10:42.845Z,97651.36
2018-12-19T03:13:10.375Z,97645.48
2018-12-19T03:15:37.877Z,97652.73
2018-12-19T03:18:05.371Z,97657.52
2018-12-19T03:20:32.883Z,97658.41
2018-12-19T03:23:00.376Z,97669.19
2018-12-19T03:25:27.887Z,97661.24
2018-12-19T03:27:55.370Z,97665.09
2018-12-19T03:30:22.889Z,97655.69
2018-12-19T03:32:50.386Z,97659.11
2018-12-19T03:35:17.868Z,97648.88
2018-12-19T03:37:45.391Z,97646.56
2018-12-19T03:40:12.882Z,97647.48
2018-12-19T03:42:40.389Z,97640.94
2018-12-19T03:45:07.896Z,97646.24
2018-12-19T03:47:35.416Z,97649.31
2018-12-19T03:50:02.991Z,97652.38
2018-12-19T03:52:30.481Z,97651.84
2018-12-19T03:54:58.005Z,97646.84
2018-12-19T03:57:25.868Z,97643.66
2018-12-19T03:59:53.351Z,97649.53
2018-12-19T04:02:20.845Z,97647.41
2018-12-19T04:04:48.315Z,97643.71
2018-12-19T04:07:15.831Z,97640.75
2018-12-19T04:09:43.330Z,97644.39
2018-12-19T04:12:10.835Z,97635.39
2018-12-19T04:14:38.314Z,97636.94
2018-12-19T04:17:05.796Z,97624.14
2018-12-19T04:19:33.356Z,97626.05
2018-12-19T04:22:00.842Z,97637.50
2018-12-19T04:24:28.322Z,97629.49
2018-12-19T04:26:55.842Z,97627.23
2018-12-19T04:29:23.314Z,97627.27
2018-12-19T04:31:50.942Z,97613.94
2018-12-19T04:34:18.430Z,97618.14
2018-12-19T04:36:45.914Z,97610.13
2018-12-19T04:39:13.406Z,97587.63
2018-12-19T04:41:40.885Z,97584.11
2018-12-19T04:44:08.394Z,97613.97
2018-12-19T04:46:35.924Z,97619.25
2018-12-19T04:49:03.406Z,97621.33
2018-12-19T04:51:31.027Z,97623.78
2018-12-19T04:53:58.521Z,97623.22
2018-12-19T04:56:25.995Z,97646.55
2018-12-19T04:58:53.468Z,97618.91
2018-12-19T05:01:20.938Z,97611.08
2018-12-19T05:03:48.407Z,97614.27
2018-12-19T05:06:15.927Z,97612.48
2018-12-19T05:08:43.430Z,97612.81
2018-12-19T05:11:10.901Z,97605.92
2018-12-19T05:13:38.386Z,97614.91
2018-12-19T05:16:05.918Z,97619.48
2018-12-19T05:18:33.422Z,97621.27
2018-12-19T05:21:00.954Z,97636.47
2018-12-19T05:23:28.447Z,97636.31
2018-12-19T05:25:55.939Z,97639.86
2018-12-19T05:28:23.459Z,97641.27
2018-12-19T05:30:50.964Z,97639.84
2018-12-19T05:33:18.494Z,97640.53
2018-12-19T05:35:45.994Z,97643.39
2018-12-19T05:38:14.452Z,97649.60
2018-12-19T05:40:41.962Z,97661.47
2018-12-19T05:43:09.499Z,97667.13
2018-12-19T05:45:37.011Z,97664.13
2018-12-19T05:48:04.506Z,97659.58
2018-12-19T05:50:31.999Z,97659.58
2018-12-19T05:52:59.498Z,97659.58
2018-12-19T05:55:26.988Z,97663.64
2018-12-19T05:57:54.498Z,97661.56
2018-12-19T06:00:21.978Z,97652.36
2018-12-19T06:02:49.494Z,97652.73
2018-12-19T06:05:17.015Z,97654.50
2018-12-19T06:07:44.507Z,97651.69
2018-12-19T06:10:11.993Z,97650.12
2018-12-19T06:12:39.490Z,97661.77
2018-12-19T06:15:06.975Z,97652.08
2018-12-19T06:17:34.474Z,97652.43
2018-12-19T06:20:01.949Z,97633.46
2018-12-19T06:22:29.431Z,97666.39
2018-12-19T06:24:56.967Z,97654.56
2018-12-19T06:27:24.461Z,97650.68
2018-12-19T06:29:51.952Z,97648.05
2018-12-19T06:32:19.442Z,97647.31
2018-12-19T06:34:47.002Z,97642.71
2018-12-19T06:37:14.678Z,97645.19
2018-12-19T06:39:42.548Z,97642.36
2018-12-19T06:42:10.068Z,97644.16
2018-12-19T06:44:37.608Z,97645.02
2018-12-19T06:47:05.102Z,97644.16
2018-12-19T06:49:32.582Z,97642.38
2018-12-19T06:52:00.115Z,97648.57
2018-12-19T06:54:28.555Z,97650.88
2018-12-19T06:56:56.059Z,97647.17
2018-12-19T06:59:23.570Z,97655.48
2018-12-19T07:01:51.041Z,97653.73
2018-12-19T07:04:24.608Z,97656.56
2018-12-19T07:06:52.876Z,97660.44
2018-12-19T07:09:20.376Z,97663.98
2018-12-19T07:11:47.899Z,97666.30
2018-12-19T07:14:15.393Z,97664.89
2018-12-19T07:16:43.591Z,97667.02
2018-12-19T07:19:11.336Z,97673.20
2018-12-19T07:21:38.860Z,97672.50
2018-12-19T07:24:06.433Z,97668.95
2018-12-19T07:26:33.937Z,97680.09
2018-12-19T07:29:02.321Z,97682.05
2018-12-19T07:31:29.842Z,97677.10
2018-12-19T07:33:57.369Z,97665.45
2018-12-19T07:36:24.874Z,97675.69
2018-12-19T07:38:52.419Z,97680.80
2018-12-19T07:41:19.910Z,97684.30
2018-12-19T07:43:47.443Z,97684.34
2018-12-19T07:46:19.855Z,97682.55
2018-12-19T07:48:44.632Z,97676.85
2018-12-19T07:51:12.131Z,97678.98
2018-12-19T07:53:39.627Z,97672.58
2018-12-19T07:56:07.236Z,97677.34
2018-12-19T07:58:34.770Z,97677.67
2018-12-19T08:01:02.254Z,97675.19
2018-12-19T08:03:30.176Z,97684.69
2018-12-19T08:05:57.732Z,97172.67
2018-12-19T08:08:25.207Z,97694.24
2018-12-19T08:10:52.690Z,97688.73
2018-12-19T08:13:20.314Z,97680.95
2018-12-19T08:15:47.893Z,97686.58
2018-12-19T08:18:15.387Z,97696.81
2018-12-19T08:20:42.911Z,97692.34
2018-12-19T08:23:10.426Z,97703.64
2018-12-19T08:25:37.923Z,97701.84
2018-12-19T08:28:05.405Z,97692.93
2018-12-19T08:30:32.896Z,97684.23
2018-12-19T08:33:00.406Z,97697.45
2018-12-19T08:35:27.910Z,97695.62
2018-12-19T08:37:55.387Z,97695.95
2018-12-19T08:40:22.861Z,97698.00
2018-12-19T08:42:50.325Z,97696.41
2018-12-19T08:45:17.919Z,97688.39
2018-12-19T08:47:45.390Z,97699.86
2018-12-19T08:50:12.861Z,97701.42
2018-12-19T08:52:40.334Z,97690.02
2018-12-19T08:55:07.809Z,97697.43
2018-12-19T08:57:35.314Z,97696.67
2018-12-19T09:00:03.061Z,97703.32
2018-12-19T09:02:30.533Z,97717.78
2018-12-19T09:04:58.006Z,97715.05
2018-12-19T09:07:25.478Z,97714.99
2018-12-19T09:09:52.974Z,97717.77
2018-12-19T09:12:20.454Z,97715.59
2018-12-19T09:14:47.917Z,97714.29
2018-12-19T09:17:15.484Z,97710.95
2018-12-19T09:19:43.156Z,97712.67
2018-12-19T09:22:11.047Z,97718.30
2018-12-19T09:24:38.530Z,97718.96
2018-12-19T09:27:06.010Z,97728.70
2018-12-19T09:29:33.491Z,97723.89
2018-12-19T09:32:01.009Z,97730.44
2018-12-19T09:34:28.511Z,97736.95
2018-12-19T09:36:55.998Z,97515.13
2018-12-19T09:39:23.465Z,97730.53
2018-12-19T09:41:50.967Z,97731.70
2018-12-19T09:44:18.442Z,97739.84
2018-12-19T09:46:45.956Z,97732.41
2018-12-19T09:49:14.095Z,97725.47
2018-12-19T09:51:41.675Z,97722.98
2018-12-19T09:54:10.222Z,97719.92
2018-12-19T09:56:37.695Z,97718.33
2018-12-19T09:59:05.164Z,97712.95
2018-12-19T10:01:32.639Z,97715.39
2018-12-19T10:04:00.138Z,97724.05
2018-12-19T10:06:27.643Z,97721.14
2018-12-19T10:08:55.111Z,97727.31
2018-12-19T10:11:22.597Z,97724.71
2018-12-19T10:13:50.102Z,97715.40
2018-12-19T10:16:17.578Z,97708.92
2018-12-19T10:18:45.083Z,97704.49
2018-12-19T10:21:12.574Z,97697.35
2018-12-19T10:23:40.053Z,97700.69
2018-12-19T10:26:12.715Z,97695.02
2018-12-19T10:28:40.187Z,97699.05
2018-12-19T10:31:07.690Z,97681.04
2018-12-19T10:33:35.149Z,97683.98
2018-12-19T10:36:02.695Z,97669.38
2018-12-19T10:38:30.199Z,97676.75
2018-12-19T10:40:57.667Z,97673.72
2018-12-19T10:43:25.166Z,97671.54
2018-12-19T10:45:52.637Z,97666.72
2018-12-19T10:48:20.115Z,97670.06
2018-12-19T10:50:47.596Z,97676.58
2018-12-19T10:53:15.796Z,97673.39
2018-12-19T10:55:43.296Z,97664.61
2018-12-19T10:58:10.767Z,97670.12
2018-12-19T11:00:43.835Z,97660.33
2018-12-19T11:03:11.300Z,97665.14
2018-12-19T11:05:38.784Z,97659.48
2018-12-19T11:08:06.271Z,97669.73
2018-12-19T11:10:33.787Z,97668.18
2018-12-19T11:13:01.262Z,97658.09
2018-12-19T11:15:28.725Z,97662.91
2018-12-19T11:17:56.235Z,97663.75
2018-12-19T11:20:23.748Z,97659.44
2018-12-19T11:22:51.224Z,97655.12
2018-12-19T11:25:18.751Z,97643.64
2018-12-19T11:27:46.315Z,97634.59
2018-12-19T11:30:13.795Z,97631.59
2018-12-19T11:32:41.320Z,97642.19
2018-12-19T11:35:08.794Z,97645.52
2018-12-19T11:37:36.300Z,97630.66
2018-12-19T11:40:05.633Z,97617.53
2018-12-19T11:42:33.107Z,97619.56
2018-12-19T11:45:00.617Z,97623.59
2018-12-19T11:47:28.087Z,97624.40
2018-12-19T11:49:55.563Z,97623.25
2018-12-19T11:52:23.035Z,97613.16
2018-12-19T11:54:50.499Z,97608.98
2018-12-19T11:57:17.997Z,97607.44
2018-12-19T11:59:45.466Z,97603.17
2018-12-19T12:02:12.962Z,97603.02
2018-12-19T12:04:40.431Z,97602.78
2018-12-19T12:07:08.086Z,97603.67
2018-12-19T12:09:35.591Z,97602.88
2018-12-19T12:12:03.073Z,97594.48
2018-12-19T12:14:30.538Z,97593.33
2018-12-19T12:16:58.019Z,97588.80
2018-12-19T12:19:25.588Z,97587.31
2018-12-19T12:21:53.194Z,97579.83
2018-12-19T12:24:20.675Z,97573.02
2018-12-19T12:26:48.151Z,97573.70
2018-12-19T12:29:15.750Z,97571.08
2018-12-19T12:31:43.221Z,97569.39
2018-12-19T12:34:10.713Z,97571.66
2018-12-19T12:36:38.175Z,97572.80
2018-12-19T12:39:06.330Z,97569.72
2018-12-19T12:41:33.804Z,97573.74
2018-12-19T12:44:01.279Z,97582.59
2018-12-19T12:46:28.780Z,97575.88
2018-12-19T12:48:56.250Z,97569.42
2018-12-19T12:51:23.726Z,97564.74
2018-12-19T12:53:51.204Z,97567.83
2018-12-19T12:56:18.715Z,97563.00
2018-12-19T12:58:46.211Z,97560.80
2018-12-19T13:01:13.677Z,97549.03
2018-12-19T13:03:41.150Z,97541.70
2018-12-19T13:06:08.622Z,97544.30
2018-12-19T13:08:36.122Z,97540.72
2018-12-19T13:11:03.601Z,97538.53
2018-12-19T13:13:31.075Z,97541.30
2018-12-19T13:15:58.574Z,97546.92
2018-12-19T13:18:26.091Z,97540.92
2018-12-19T13:20:53.654Z,97546.37
2018-12-19T13:23:21.138Z,97544.58
2018-12-19T13:25:48.605Z,97539.52
2018-12-19T13:28:16.184Z,97538.72
2018-12-19T13:30:43.663Z,97534.75
2018-12-19T13:33:11.125Z,97534.95
2018-12-19T13:35:38.605Z,97524.81
2018-12-19T13:38:06.085Z,97519.75
2018-12-19T13:40:33.587Z,97519.84
2018-12-19T13:43:01.064Z,97514.33
2018-12-19T13:45:28.541Z,97517.50
2018-12-19T13:47:56.005Z,97518.89
2018-12-19T13:50:24.876Z,97508.42
2018-12-19T13:52:52.618Z,97506.18
2018-12-19T13:55:20.082Z,97517.05
2018-12-19T13:57:47.553Z,97504.64
2018-12-19T14:00:15.045Z,97508.56
2018-12-19T14:02:42.530Z,97503.39
2018-12-19T14:05:10.005Z,97497.34
2018-12-19T14:07:37.507Z,97497.05
2018-12-19T14:10:05.551Z,97487.52
2018-12-19T14:12:33.033Z,97484.23
2018-12-19T14:15:00.497Z,97476.92
2018-12-19T14:17:27.970Z,97465.45
2018-12-19T14:19:55.665Z,97463.02
2018-12-19T14:22:24.103Z,97456.02
2018-12-19T14:24:51.589Z,97450.75
2018-12-19T14:27:19.056Z,97450.75
2018-12-19T14:29:46.519Z,97458.70
2018-12-19T14:32:14.313Z,97470.82
2018-12-19T14:34:41.782Z,97466.55
2018-12-19T14:37:09.281Z,97461.58
2018-12-19T14:39:36.758Z,97460.19
2018-12-19T14:42:04.234Z,97462.13
2018-12-19T14:44:31.731Z,97453.69
2018-12-19T14:46:59.198Z,97450.61
2018-12-19T14:49:26.667Z,97442.43
2018-12-19T14:51:54.141Z,97453.55
2018-12-19T14:54:21.614Z,97455.23
2018-12-19T14:56:49.117Z,97455.03
2018-12-19T14:59:16.598Z,97466.70
2018-12-19T15:01:44.078Z,97464.52
2018-12-19T15:04:11.559Z,97471.23
2018-12-19T15:06:39.030Z,97473.21
2018-12-19T15:09:06.711Z,97470.44
2018-12-19T15:11:34.197Z,97468.24
2018-12-19T15:14:01.671Z,97473.36
2018-12-19T15:16:29.179Z,97479.66
2018-12-19T15:18:56.713Z,97466.81
2018-12-19T15:21:24.250Z,97462.05
2018-12-19T15:23:51.737Z,97450.81
2018-12-19T15:26:19.250Z,97454.45
2018-12-19T15:28:46.713Z,97461.84
2018-12-19T15:31:14.184Z,97458.56
2018-12-19T15:33:41.650Z,97457.08
2018-12-19T15:36:09.305Z,97457.23
2018-12-19T15:38:36.803Z,97459.86
2018-12-19T15:41:04.272Z,97455.54
2018-12-19T15:43:31.742Z,97451.82
2018-12-19T15:45:59.220Z,97451.91
2018-12-19T15:48:26.725Z,97453.15
2018-12-19T15:50:54.257Z,97461.39
2018-12-19T15:53:21.726Z,97451.61
2018-12-19T15:55:49.203Z,97452.86
2018-12-19T15:58:16.681Z,97459.01
2018-12-19T16:00:44.169Z,97458.56
2018-12-19T16:03:11.670Z,97465.61
2018-12-19T16:05:39.329Z,97440.64
2018-12-19T16:08:06.790Z,97436.61
2018-12-19T16:10:34.290Z,97428.42
2018-12-19T16:13:01.762Z,97420.53
2018-12-19T16:15:29.255Z,97420.08
2018-12-19T16:17:56.726Z,97408.66
2018-12-19T16:20:24.189Z,97396.11
2018-12-19T16:22:51.672Z,97389.61
2018-12-19T16:25:19.267Z,97389.41
2018-12-19T16:27:46.770Z,97391.80
2018-12-19T16:30:14.302Z,97396.77
2018-12-19T16:32:41.780Z,97391.15
2018-12-19T16:35:09.359Z,97390.50
2018-12-19T16:37:36.859Z,97387.42
2018-12-19T16:40:04.406Z,97381.86
2018-12-19T16:42:31.874Z,97372.73
2018-12-19T16:44:59.354Z,97368.52
2018-12-19T16:47:26.828Z,97369.22
2018-12-19T16:49:54.343Z,97368.52
2018-12-19T16:52:21.815Z,97363.75
2018-12-19T16:54:49.285Z,97361.13
2018-12-19T16:57:16.761Z,97356.95
2018-12-19T16:59:44.238Z,97359.13
2018-12-19T17:02:11.722Z,97357.95
2018-12-19T17:04:39.210Z,97354.58
2018-12-19T17:07:06.691Z,97353.42
2018-12-19T17:09:34.166Z,97364.42
2018-12-19T17:12:01.636Z,97371.41
2018-12-19T17:14:29.247Z,97359.56
2018-12-19T17:16:56.757Z,97357.67
2018-12-19T17:19:24.232Z,97360.50
2018-12-19T17:21:51.705Z,97365.41
2018-12-19T17:24:21.174Z,97372.42
2018-12-19T17:26:48.670Z,97377.91
2018-12-19T17:29:17.081Z,97373.81
2018-12-19T17:31:44.541Z,97377.61
2018-12-19T17:34:12.028Z,97380.09
2018-12-19T17:36:39.493Z,97372.84
2018-12-19T17:39:07.091Z,97372.90
2018-12-19T17:41:34.595Z,97364.80
2018-12-19T17:44:02.072Z,97368.38
2018-12-19T17:46:29.566Z,97370.55
2018-12-19T17:48:57.042Z,97368.66
2018-12-19T17:51:24.505Z,97369.36
2018-12-19T17:53:51.975Z,97370.09
2018-12-19T17:56:19.437Z,97372.84
2018-12-19T17:58:46.926Z,97379.23
2018-12-19T18:01:14.546Z,97371.45
2018-12-19T18:03:42.014Z,97369.68
2018-12-19T18:06:09.481Z,97368.13
2018-12-19T18:08:36.951Z,97364.41
2018-12-19T18:11:04.427Z,97354.59
2018-12-19T18:13:31.945Z,97353.59
2018-12-19T18:16:00.658Z,97349.80
2018-12-19T18:18:28.161Z,97347.82
2018-12-19T18:20:55.625Z,97337.45
2018-12-19T18:23:23.099Z,97337.45
2018-12-19T18:25:50.562Z,97340.13
2018-12-19T18:28:18.047Z,97339.78
2018-12-19T18:30:45.536Z,97344.00
2018-12-19T18:33:13.278Z,97339.98
2018-12-19T18:35:40.779Z,97338.66
2018-12-19T18:38:08.251Z,97336.34
2018-12-19T18:40:35.730Z,97330.69
2018-12-19T18:43:03.295Z,97326.97
2018-12-19T18:45:30.790Z,97313.89
2018-12-19T18:47:58.346Z,97315.68
2018-12-19T18:50:25.847Z,97325.86
2018-12-19T18:52:53.329Z,97326.44
2018-12-19T18:55:20.954Z,97331.94
2018-12-19T18:57:48.607Z,97336.55
2018-12-19T19:00:18.157Z,97330.16
2018-12-19T19:02:46.139Z,97327.52
2018-12-19T19:05:13.808Z,97322.72
2018-12-19T19:07:41.331Z,97318.31
2018-12-19T19:10:08.938Z,97311.27
2018-12-19T19:12:36.637Z,97313.90
2018-12-19T19:15:04.704Z,97316.22
2018-12-19T19:17:32.213Z,97314.41
2018-12-19T19:19:59.811Z,97309.10
2018-12-19T19:22:27.406Z,97317.97
2018-12-19T19:24:54.897Z,97317.39
2018-12-19T19:27:22.420Z,97321.41
2018-12-19T19:29:49.937Z,97321.64
2018-12-19T19:32:18.732Z,97318.86
2018-12-19T19:34:46.498Z,97320.09
2018-12-19T19:37:13.978Z,97325.39
2018-12-19T19:39:41.533Z,97329.06
2018-12-19T19:42:09.043Z,97334.53
2018-12-19T19:44:36.522Z,97336.27
2018-12-19T19:47:04.051Z,97340.59
2018-12-19T19:49:31.543Z,96755.95
2018-12-19T19:51:59.071Z,97334.87
2018-12-19T19:54:26.590Z,97334.21
2018-12-19T19:56:54.177Z,97330.80
2018-12-19T19:59:21.670Z,97328.98
2018-12-19T20:01:49.160Z,97325.03
2018-12-19T20:04:16.638Z,97323.34
2018-12-19T20:06:44.137Z,97323.89
2018-12-19T20:09:11.638Z,97326.16
2018-12-19T20:11:39.143Z,97327.05
2018-12-19T20:14:06.766Z,97325.08
2018-12-19T20:16:36.297Z,97334.64
2018-12-19T20:19:03.806Z,97343.23
2018-12-19T20:21:31.359Z,97341.80
2018-12-19T20:23:58.833Z,97342.22
2018-12-19T20:26:26.466Z,97343.61
2018-12-19T20:28:53.955Z,97350.42
2018-12-19T20:31:21.454Z,97363.19
2018-12-19T20:33:49.126Z,97375.84
2018-12-19T20:36:16.611Z,97371.61
2018-12-19T20:38:44.343Z,97375.35
2018-12-19T20:41:11.821Z,97377.50
2018-12-19T20:43:40.102Z,97385.75
2018-12-19T20:46:07.846Z,97395.97
2018-12-19T20:48:35.408Z,97393.44
2018-12-19T20:51:02.894Z,97410.45
2018-12-19T20:53:30.402Z,97414.52
2018-12-19T20:56:03.595Z,97412.19
2018-12-19T20:58:27.440Z,97404.70
2018-12-19T21:00:54.973Z,97411.36
2018-12-19T21:03:22.585Z,97414.09
2018-12-19T21:05:50.111Z,97423.08
2018-12-19T21:08:17.660Z,97421.25
2018-12-19T21:10:45.167Z,97423.73
2018-12-19T21:13:12.715Z,97418.92
2018-12-19T21:15:40.190Z,97424.08
2018-12-19T21:18:13.298Z,97424.52
2018-12-19T21:20:40.812Z,97421.69
2018-12-19T21:23:08.319Z,97414.88
2018-12-19T21:25:35.896Z,97408.27
2018-12-19T21:28:03.469Z,97405.99
2018-12-19T21:30:31.157Z,97399.19
2018-12-19T21:32:59.316Z,97405.03
2018-12-19T21:35:26.827Z,97401.69
2018-12-19T21:37:54.334Z,97407.53
2018-12-19T21:40:22.137Z,97411.86
2018-12-19T21:42:49.716Z,97401.84
2018-12-19T21:45:17.391Z,97400.78
2018-12-19T21:47:44.932Z,97403.41
2018-12-19T21:50:12.535Z,97416.06
2018-12-19T21:52:40.247Z,97410.75
2018-12-19T21:55:07.786Z,97413.34
2018-12-19T21:57:35.930Z,97409.52
2018-12-19T22:00:03.471Z,97407.66
2018-12-19T22:02:31.127Z,97402.65
2018-12-19T22:04:58.876Z,97396.38
2018-12-19T22:07:26.362Z,97386.55
2018-12-19T22:09:53.903Z,97379.55
2018-12-19T22:12:21.417Z,97384.08
2018-12-19T22:14:48.907Z,97382.33
2018-12-19T22:17:22.161Z,97383.09
2018-12-19T22:19:49.703Z,97383.59
2018-12-19T22:22:17.212Z,97388.05
2018-12-19T22:24:44.792Z,97382.00
2018-12-19T22:27:12.355Z,97378.14
2018-12-19T22:29:40.041Z,97367.56
2018-12-19T22:32:08.347Z,97369.61
2018-12-19T22:34:35.948Z,97367.77
2018-12-19T22:37:03.470Z,97385.55
2018-12-19T22:39:30.975Z,97359.11
2018-12-19T22:41:58.484Z,97352.79
2018-12-19T22:44:26.143Z,97360.18
2018-12-19T22:46:53.728Z,97369.66
2018-12-19T22:49:21.289Z,97373.13
2018-12-19T22:51:48.764Z,97375.33
2018-12-19T22:54:16.277Z,97377.38
2018-12-19T22:56:43.937Z,97371.03
2018-12-19T22:59:11.566Z,97362.68
2018-12-19T23:01:44.822Z,97370.55
2018-12-19T23:04:12.421Z,97371.00
2018-12-19T23:06:40.263Z,97367.23
2018-12-19T23:09:07.887Z,97372.66
2018-12-19T23:11:35.428Z,97374.70
2018-12-19T23:14:03.137Z,97370.55
2018-12-19T23:16:30.766Z,97374.27
2018-12-19T23:18:58.291Z,97369.79
2018-12-19T23:21:25.890Z,97370.49
2018-12-19T23:23:53.387Z,97368.60
2018-12-19T23:26:20.910Z,97365.08
2018-12-19T23:28:48.437Z,97353.97
2018-12-19T23:31:15.955Z,97357.49
2018-12-19T23:33:43.452Z,97358.38
2018-12-19T23:36:10.931Z,97369.30
2018-12-19T23:38:38.456Z,97370.64
2018-12-19T23:41:06.092Z,97370.44
2018-12-19T23:43:33.824Z,97381.70
2018-12-19T23:46:01.360Z,97382.36
2018-12-19T23:48:28.946Z,97377.70
2018-12-19T23:50:56.527Z,97374.71
2018-12-19T23:53:24.027Z,97375.72
2018-12-19T23:55:51.521Z,96331.87
2018-12-19T23:58:19.133Z,97378.44
